sensor_id;sensor_type;location;lat;lon;timestamp;temperature;humidity
12481;DHT22;6305;48.398;11.762;2023-07-02T00:00:10;15.60;99.90
12481;DHT22;6305;48.398;11.762;2023-07-02T00:02:38;15.50;99.90
12481;DHT22;6305;48.398;11.762;2023-07-02T00:05:06;15.50;99.90
12481;DHT22;6305;48.398;11.762;2023-07-02T00:07:33;15.40;99.90
12481;DHT22;6305;48.398;11.762;2023-07-02T00:10:03;15.40;99.90
12481;DHT22;6305;48.398;11.762;2023-07-02T00:12:30;15.40;99.90
12481;DHT22;6305;48.398;11.762;2023-07-02T00:14:58;15.40;99.90
12481;DHT22;6305;48.398;11.762;2023-07-02T00:17:27;15.40;99.90
12481;DHT22;6305;48.398;11.762;2023-07-02T00:19:54;15.40;99.90
12481;DHT22;6305;48.398;11.762;2023-07-02T00:22:24;15.40;99.90
12481;DHT22;6305;48.398;11.762;2023-07-02T00:24:51;15.40;99.90
12481;DHT22;6305;48.398;11.762;2023-07-02T00:27:26;15.50;99.90
12481;DHT22;6305;48.398;11.762;2023-07-02T00:29:53;15.50;99.90
12481;DHT22;6305;48.398;11.762;2023-07-02T00:32:20;15.50;99.90
12481;DHT22;6305;48.398;11.762;2023-07-02T00:34:47;15.50;99.90
12481;DHT22;6305;48.398;11.762;2023-07-02T00:37:14;15.50;99.90
12481;DHT22;6305;48.398;11.762;2023-07-02T00:39:41;15.50;99.90
12481;DHT22;6305;48.398;11.762;2023-07-02T00:42:09;15.50;99.90
12481;DHT22;6305;48.398;11.762;2023-07-02T00:44:38;15.50;99.90
12481;DHT22;6305;48.398;11.762;2023-07-02T00:47:06;15.50;99.90
12481;DHT22;6305;48.398;11.762;2023-07-02T00:49:34;15.50;99.90
12481;DHT22;6305;48.398;11.762;2023-07-02T00:52:01;15.50;99.90
12481;DHT22;6305;48.398;11.762;2023-07-02T00:54:28;15.50;99.90
12481;DHT22;6305;48.398;11.762;2023-07-02T00:57:00;15.50;99.90
12481;DHT22;6305;48.398;11.762;2023-07-02T00:59:30;15.60;99.90
12481;DHT22;6305;48.398;11.762;2023-07-02T01:01:58;15.60;99.90
12481;DHT22;6305;48.398;11.762;2023-07-02T01:04:27;15.60;99.90
12481;DHT22;6305;48.398;11.762;2023-07-02T01:06:57;15.60;99.90
12481;DHT22;6305;48.398;11.762;2023-07-02T01:09:25;15.60;99.90
12481;DHT22;6305;48.398;11.762;2023-07-02T01:11:54;15.60;99.90
12481;DHT22;6305;48.398;11.762;2023-07-02T01:14:25;15.60;99.90
12481;DHT22;6305;48.398;11.762;2023-07-02T01:16:54;15.60;99.90
12481;DHT22;6305;48.398;11.762;2023-07-02T01:19:31;15.60;99.90
12481;DHT22;6305;48.398;11.762;2023-07-02T01:22:00;15.60;99.90
12481;DHT22;6305;48.398;11.762;2023-07-02T01:24:28;15.70;99.90
12481;DHT22;6305;48.398;11.762;2023-07-02T01:26:56;15.70;99.90
12481;DHT22;6305;48.398;11.762;2023-07-02T01:29:32;15.70;99.90
12481;DHT22;6305;48.398;11.762;2023-07-02T01:32:02;15.70;99.90
12481;DHT22;6305;48.398;11.762;2023-07-02T01:34:31;15.70;99.90
12481;DHT22;6305;48.398;11.762;2023-07-02T01:36:58;15.70;99.90
12481;DHT22;6305;48.398;11.762;2023-07-02T01:39:25;15.80;99.90
12481;DHT22;6305;48.398;11.762;2023-07-02T01:41:53;15.80;99.90
12481;DHT22;6305;48.398;11.762;2023-07-02T01:44:21;15.80;99.90
12481;DHT22;6305;48.398;11.762;2023-07-02T01:46:49;15.80;99.90
12481;DHT22;6305;48.398;11.762;2023-07-02T01:49:18;15.80;99.90
12481;DHT22;6305;48.398;11.762;2023-07-02T01:51:49;15.90;99.90
12481;DHT22;6305;48.398;11.762;2023-07-02T01:54:16;15.90;99.90
12481;DHT22;6305;48.398;11.762;2023-07-02T01:56:43;15.90;99.90
12481;DHT22;6305;48.398;11.762;2023-07-02T01:59:13;15.90;99.90
12481;DHT22;6305;48.398;11.762;2023-07-02T02:01:44;16.00;99.90
12481;DHT22;6305;48.398;11.762;2023-07-02T02:04:12;15.90;99.90
12481;DHT22;6305;48.398;11.762;2023-07-02T02:06:39;16.00;99.90
12481;DHT22;6305;48.398;11.762;2023-07-02T02:09:09;16.00;99.90
12481;DHT22;6305;48.398;11.762;2023-07-02T02:11:39;16.00;99.90
12481;DHT22;6305;48.398;11.762;2023-07-02T02:14:06;16.00;99.90
12481;DHT22;6305;48.398;11.762;2023-07-02T02:16:34;16.10;99.90
12481;DHT22;6305;48.398;11.762;2023-07-02T02:19:02;16.10;99.90
12481;DHT22;6305;48.398;11.762;2023-07-02T02:21:30;16.10;99.90
12481;DHT22;6305;48.398;11.762;2023-07-02T02:23:58;16.20;99.90
12481;DHT22;6305;48.398;11.762;2023-07-02T02:26:28;16.30;99.90
12481;DHT22;6305;48.398;11.762;2023-07-02T02:28:58;16.30;99.90
12481;DHT22;6305;48.398;11.762;2023-07-02T02:31:37;16.40;99.90
12481;DHT22;6305;48.398;11.762;2023-07-02T02:34:14;16.40;99.90
12481;DHT22;6305;48.398;11.762;2023-07-02T02:36:43;16.50;99.90
12481;DHT22;6305;48.398;11.762;2023-07-02T02:39:11;16.50;99.90
12481;DHT22;6305;48.398;11.762;2023-07-02T02:41:40;16.50;99.90
12481;DHT22;6305;48.398;11.762;2023-07-02T02:44:08;16.60;99.90
12481;DHT22;6305;48.398;11.762;2023-07-02T02:46:35;16.60;99.90
12481;DHT22;6305;48.398;11.762;2023-07-02T02:49:05;16.70;99.90
12481;DHT22;6305;48.398;11.762;2023-07-02T02:51:32;16.70;99.90
12481;DHT22;6305;48.398;11.762;2023-07-02T02:54:07;16.50;99.90
12481;DHT22;6305;48.398;11.762;2023-07-02T02:56:42;16.40;99.90
12481;DHT22;6305;48.398;11.762;2023-07-02T02:59:13;16.00;99.90
12481;DHT22;6305;48.398;11.762;2023-07-02T03:01:47;15.60;99.90
12481;DHT22;6305;48.398;11.762;2023-07-02T03:04:14;15.30;99.90
12481;DHT22;6305;48.398;11.762;2023-07-02T03:06:42;15.10;99.90
12481;DHT22;6305;48.398;11.762;2023-07-02T03:09:09;14.90;99.90
12481;DHT22;6305;48.398;11.762;2023-07-02T03:11:36;14.80;99.90
12481;DHT22;6305;48.398;11.762;2023-07-02T03:14:05;14.80;99.90
12481;DHT22;6305;48.398;11.762;2023-07-02T03:16:32;14.70;99.90
12481;DHT22;6305;48.398;11.762;2023-07-02T03:18:59;14.60;99.90
12481;DHT22;6305;48.398;11.762;2023-07-02T03:21:28;14.60;99.90
12481;DHT22;6305;48.398;11.762;2023-07-02T03:24:00;14.60;99.90
12481;DHT22;6305;48.398;11.762;2023-07-02T03:26:27;14.50;99.90
12481;DHT22;6305;48.398;11.762;2023-07-02T03:28:57;14.50;99.90
12481;DHT22;6305;48.398;11.762;2023-07-02T03:31:25;14.50;99.90
12481;DHT22;6305;48.398;11.762;2023-07-02T03:33:52;14.50;99.90
12481;DHT22;6305;48.398;11.762;2023-07-02T03:36:19;14.50;99.90
12481;DHT22;6305;48.398;11.762;2023-07-02T03:38:46;14.40;99.90
12481;DHT22;6305;48.398;11.762;2023-07-02T03:41:13;14.50;99.90
12481;DHT22;6305;48.398;11.762;2023-07-02T03:43:41;14.40;99.90
12481;DHT22;6305;48.398;11.762;2023-07-02T03:46:09;14.40;99.90
12481;DHT22;6305;48.398;11.762;2023-07-02T03:48:37;14.40;99.90
12481;DHT22;6305;48.398;11.762;2023-07-02T03:51:04;14.50;99.90
12481;DHT22;6305;48.398;11.762;2023-07-02T03:53:31;14.50;99.90
12481;DHT22;6305;48.398;11.762;2023-07-02T03:55:58;14.40;99.90
12481;DHT22;6305;48.398;11.762;2023-07-02T03:58:26;14.50;99.90
12481;DHT22;6305;48.398;11.762;2023-07-02T04:00:53;14.50;99.90
12481;DHT22;6305;48.398;11.762;2023-07-02T04:03:20;14.50;99.90
12481;DHT22;6305;48.398;11.762;2023-07-02T04:05:49;14.50;99.90
12481;DHT22;6305;48.398;11.762;2023-07-02T04:08:16;14.50;99.90
12481;DHT22;6305;48.398;11.762;2023-07-02T04:10:43;14.50;99.90
12481;DHT22;6305;48.398;11.762;2023-07-02T04:13:11;14.60;99.90
12481;DHT22;6305;48.398;11.762;2023-07-02T04:15:38;14.50;99.90
12481;DHT22;6305;48.398;11.762;2023-07-02T04:18:05;14.60;99.90
12481;DHT22;6305;48.398;11.762;2023-07-02T04:20:32;14.60;99.90
12481;DHT22;6305;48.398;11.762;2023-07-02T04:23:01;14.60;99.90
12481;DHT22;6305;48.398;11.762;2023-07-02T04:25:28;14.60;99.90
12481;DHT22;6305;48.398;11.762;2023-07-02T04:27:57;14.70;99.90
12481;DHT22;6305;48.398;11.762;2023-07-02T04:30:24;14.70;99.90
12481;DHT22;6305;48.398;11.762;2023-07-02T04:32:52;14.70;99.90
12481;DHT22;6305;48.398;11.762;2023-07-02T04:35:19;14.80;99.90
12481;DHT22;6305;48.398;11.762;2023-07-02T04:37:46;14.80;99.90
12481;DHT22;6305;48.398;11.762;2023-07-02T04:40:14;14.80;99.90
12481;DHT22;6305;48.398;11.762;2023-07-02T04:42:42;14.80;99.90
12481;DHT22;6305;48.398;11.762;2023-07-02T04:45:13;14.80;99.90
12481;DHT22;6305;48.398;11.762;2023-07-02T04:47:42;14.80;99.90
12481;DHT22;6305;48.398;11.762;2023-07-02T04:50:09;14.90;99.90
12481;DHT22;6305;48.398;11.762;2023-07-02T04:52:37;15.00;99.90
12481;DHT22;6305;48.398;11.762;2023-07-02T04:55:07;15.10;99.90
12481;DHT22;6305;48.398;11.762;2023-07-02T04:57:36;15.10;99.90
12481;DHT22;6305;48.398;11.762;2023-07-02T05:00:04;15.10;99.90
12481;DHT22;6305;48.398;11.762;2023-07-02T05:02:33;15.00;99.90
12481;DHT22;6305;48.398;11.762;2023-07-02T05:05:00;14.90;99.90
12481;DHT22;6305;48.398;11.762;2023-07-02T05:07:27;14.90;99.90
12481;DHT22;6305;48.398;11.762;2023-07-02T05:09:55;15.20;99.90
12481;DHT22;6305;48.398;11.762;2023-07-02T05:12:23;15.50;99.90
12481;DHT22;6305;48.398;11.762;2023-07-02T05:14:52;15.90;99.90
12481;DHT22;6305;48.398;11.762;2023-07-02T05:17:19;16.30;99.90
12481;DHT22;6305;48.398;11.762;2023-07-02T05:19:45;16.50;99.90
12481;DHT22;6305;48.398;11.762;2023-07-02T05:22:13;16.50;99.90
12481;DHT22;6305;48.398;11.762;2023-07-02T05:24:40;16.40;99.90
12481;DHT22;6305;48.398;11.762;2023-07-02T05:27:09;16.20;99.90
12481;DHT22;6305;48.398;11.762;2023-07-02T05:29:36;16.00;99.90
12481;DHT22;6305;48.398;11.762;2023-07-02T05:32:06;15.90;99.90
12481;DHT22;6305;48.398;11.762;2023-07-02T05:34:33;15.80;99.90
12481;DHT22;6305;48.398;11.762;2023-07-02T05:37:00;15.70;99.90
12481;DHT22;6305;48.398;11.762;2023-07-02T05:39:27;15.80;99.90
12481;DHT22;6305;48.398;11.762;2023-07-02T05:41:58;15.90;99.90
12481;DHT22;6305;48.398;11.762;2023-07-02T05:44:25;16.10;99.90
12481;DHT22;6305;48.398;11.762;2023-07-02T05:46:52;16.40;99.90
12481;DHT22;6305;48.398;11.762;2023-07-02T05:49:22;16.80;99.90
12481;DHT22;6305;48.398;11.762;2023-07-02T05:51:49;17.60;99.90
12481;DHT22;6305;48.398;11.762;2023-07-02T05:54:16;18.20;99.90
12481;DHT22;6305;48.398;11.762;2023-07-02T05:56:43;18.70;99.90
12481;DHT22;6305;48.398;11.762;2023-07-02T05:59:11;18.90;99.90
12481;DHT22;6305;48.398;11.762;2023-07-02T06:01:40;18.80;99.90
12481;DHT22;6305;48.398;11.762;2023-07-02T06:04:09;18.80;99.90
12481;DHT22;6305;48.398;11.762;2023-07-02T06:06:38;18.60;99.90
12481;DHT22;6305;48.398;11.762;2023-07-02T06:09:05;18.40;99.90
12481;DHT22;6305;48.398;11.762;2023-07-02T06:11:32;18.20;99.90
12481;DHT22;6305;48.398;11.762;2023-07-02T06:13:59;18.00;99.90
12481;DHT22;6305;48.398;11.762;2023-07-02T06:16:27;17.90;99.90
12481;DHT22;6305;48.398;11.762;2023-07-02T06:18:54;17.90;99.90
12481;DHT22;6305;48.398;11.762;2023-07-02T06:21:21;17.80;99.90
12481;DHT22;6305;48.398;11.762;2023-07-02T06:23:57;17.60;99.90
12481;DHT22;6305;48.398;11.762;2023-07-02T06:26:25;17.40;99.90
12481;DHT22;6305;48.398;11.762;2023-07-02T06:28:52;17.30;99.90
12481;DHT22;6305;48.398;11.762;2023-07-02T06:31:19;17.00;99.90
12481;DHT22;6305;48.398;11.762;2023-07-02T06:33:46;16.90;99.90
12481;DHT22;6305;48.398;11.762;2023-07-02T06:36:13;16.80;99.90
12481;DHT22;6305;48.398;11.762;2023-07-02T06:38:40;16.80;99.90
12481;DHT22;6305;48.398;11.762;2023-07-02T06:41:09;16.70;99.90
12481;DHT22;6305;48.398;11.762;2023-07-02T06:43:36;16.60;99.90
12481;DHT22;6305;48.398;11.762;2023-07-02T06:46:04;16.70;99.90
12481;DHT22;6305;48.398;11.762;2023-07-02T06:48:31;16.80;99.90
12481;DHT22;6305;48.398;11.762;2023-07-02T06:50:58;16.90;99.90
12481;DHT22;6305;48.398;11.762;2023-07-02T06:53:25;17.10;99.90
12481;DHT22;6305;48.398;11.762;2023-07-02T06:55:53;17.20;99.90
12481;DHT22;6305;48.398;11.762;2023-07-02T06:58:21;17.20;99.90
12481;DHT22;6305;48.398;11.762;2023-07-02T07:00:48;17.10;99.90
12481;DHT22;6305;48.398;11.762;2023-07-02T07:03:16;17.10;99.90
12481;DHT22;6305;48.398;11.762;2023-07-02T07:05:43;17.10;99.90
12481;DHT22;6305;48.398;11.762;2023-07-02T07:08:11;17.10;99.90
12481;DHT22;6305;48.398;11.762;2023-07-02T07:10:38;17.20;99.90
12481;DHT22;6305;48.398;11.762;2023-07-02T07:13:05;17.40;99.90
12481;DHT22;6305;48.398;11.762;2023-07-02T07:15:34;17.50;99.90
12481;DHT22;6305;48.398;11.762;2023-07-02T07:18:01;17.70;99.90
12481;DHT22;6305;48.398;11.762;2023-07-02T07:20:28;17.70;99.90
12481;DHT22;6305;48.398;11.762;2023-07-02T07:22:56;17.50;99.90
12481;DHT22;6305;48.398;11.762;2023-07-02T07:25:24;17.30;99.90
12481;DHT22;6305;48.398;11.762;2023-07-02T07:27:52;16.80;99.90
12481;DHT22;6305;48.398;11.762;2023-07-02T07:30:19;16.40;99.90
12481;DHT22;6305;48.398;11.762;2023-07-02T07:32:50;16.10;99.90
12481;DHT22;6305;48.398;11.762;2023-07-02T07:35:17;15.90;99.90
12481;DHT22;6305;48.398;11.762;2023-07-02T07:37:45;15.80;99.90
12481;DHT22;6305;48.398;11.762;2023-07-02T07:40:14;15.60;99.90
12481;DHT22;6305;48.398;11.762;2023-07-02T07:42:41;15.60;99.90
12481;DHT22;6305;48.398;11.762;2023-07-02T07:45:10;15.70;99.90
12481;DHT22;6305;48.398;11.762;2023-07-02T07:47:38;15.80;99.90
12481;DHT22;6305;48.398;11.762;2023-07-02T07:50:08;15.90;99.90
12481;DHT22;6305;48.398;11.762;2023-07-02T07:52:37;15.80;99.90
12481;DHT22;6305;48.398;11.762;2023-07-02T07:55:05;15.80;99.90
12481;DHT22;6305;48.398;11.762;2023-07-02T07:57:34;15.90;99.90
12481;DHT22;6305;48.398;11.762;2023-07-02T08:00:02;15.90;99.90
12481;DHT22;6305;48.398;11.762;2023-07-02T08:02:42;15.90;99.90
12481;DHT22;6305;48.398;11.762;2023-07-02T08:05:12;16.00;99.90
12481;DHT22;6305;48.398;11.762;2023-07-02T08:07:40;16.00;99.90
12481;DHT22;6305;48.398;11.762;2023-07-02T08:10:07;15.90;99.90
12481;DHT22;6305;48.398;11.762;2023-07-02T08:12:35;15.60;99.90
12481;DHT22;6305;48.398;11.762;2023-07-02T08:15:03;15.40;99.90
12481;DHT22;6305;48.398;11.762;2023-07-02T08:17:34;15.30;99.90
12481;DHT22;6305;48.398;11.762;2023-07-02T08:20:01;15.30;99.90
12481;DHT22;6305;48.398;11.762;2023-07-02T08:22:38;15.20;99.90
12481;DHT22;6305;48.398;11.762;2023-07-02T08:25:06;15.20;99.90
12481;DHT22;6305;48.398;11.762;2023-07-02T08:27:34;15.30;99.90
12481;DHT22;6305;48.398;11.762;2023-07-02T08:30:01;15.60;99.90
12481;DHT22;6305;48.398;11.762;2023-07-02T08:32:28;16.00;99.90
12481;DHT22;6305;48.398;11.762;2023-07-02T08:34:58;16.20;99.90
12481;DHT22;6305;48.398;11.762;2023-07-02T08:37:25;16.30;99.90
12481;DHT22;6305;48.398;11.762;2023-07-02T08:39:53;16.20;99.90
12481;DHT22;6305;48.398;11.762;2023-07-02T08:42:20;16.30;99.90
12481;DHT22;6305;48.398;11.762;2023-07-02T08:44:54;16.50;99.90
12481;DHT22;6305;48.398;11.762;2023-07-02T08:47:21;16.80;99.90
12481;DHT22;6305;48.398;11.762;2023-07-02T08:49:49;17.20;99.90
12481;DHT22;6305;48.398;11.762;2023-07-02T08:52:16;17.40;99.90
12481;DHT22;6305;48.398;11.762;2023-07-02T08:54:43;17.80;99.90
12481;DHT22;6305;48.398;11.762;2023-07-02T08:57:12;18.20;99.90
12481;DHT22;6305;48.398;11.762;2023-07-02T08:59:39;18.30;99.90
12481;DHT22;6305;48.398;11.762;2023-07-02T09:02:06;18.50;99.90
12481;DHT22;6305;48.398;11.762;2023-07-02T09:04:33;19.00;99.90
12481;DHT22;6305;48.398;11.762;2023-07-02T09:07:04;19.60;99.90
12481;DHT22;6305;48.398;11.762;2023-07-02T09:09:32;20.20;99.90
12481;DHT22;6305;48.398;11.762;2023-07-02T09:11:59;20.60;99.90
12481;DHT22;6305;48.398;11.762;2023-07-02T09:14:29;20.90;99.90
12481;DHT22;6305;48.398;11.762;2023-07-02T09:17:05;21.30;99.90
12481;DHT22;6305;48.398;11.762;2023-07-02T09:19:32;21.80;99.90
12481;DHT22;6305;48.398;11.762;2023-07-02T09:21:59;22.20;99.90
12481;DHT22;6305;48.398;11.762;2023-07-02T09:24:28;22.30;99.90
12481;DHT22;6305;48.398;11.762;2023-07-02T09:26:59;22.40;99.90
12481;DHT22;6305;48.398;11.762;2023-07-02T09:29:28;22.70;99.90
12481;DHT22;6305;48.398;11.762;2023-07-02T09:31:57;23.10;99.90
12481;DHT22;6305;48.398;11.762;2023-07-02T09:34:28;23.40;99.90
12481;DHT22;6305;48.398;11.762;2023-07-02T09:36:58;23.70;99.90
12481;DHT22;6305;48.398;11.762;2023-07-02T09:39:26;23.80;99.90
12481;DHT22;6305;48.398;11.762;2023-07-02T09:41:55;23.40;99.90
12481;DHT22;6305;48.398;11.762;2023-07-02T09:44:26;23.00;99.90
12481;DHT22;6305;48.398;11.762;2023-07-02T09:47:00;22.40;99.90
12481;DHT22;6305;48.398;11.762;2023-07-02T09:49:32;21.90;99.90
12481;DHT22;6305;48.398;11.762;2023-07-02T09:52:00;21.50;99.90
12481;DHT22;6305;48.398;11.762;2023-07-02T09:54:28;21.60;99.90
12481;DHT22;6305;48.398;11.762;2023-07-02T09:56:55;22.00;99.90
12481;DHT22;6305;48.398;11.762;2023-07-02T09:59:23;22.60;99.90
12481;DHT22;6305;48.398;11.762;2023-07-02T10:01:50;23.00;99.90
12481;DHT22;6305;48.398;11.762;2023-07-02T10:04:20;22.90;99.90
12481;DHT22;6305;48.398;11.762;2023-07-02T10:06:50;22.30;99.90
12481;DHT22;6305;48.398;11.762;2023-07-02T10:09:18;21.90;99.90
12481;DHT22;6305;48.398;11.762;2023-07-02T10:11:45;22.10;99.90
12481;DHT22;6305;48.398;11.762;2023-07-02T10:14:12;22.70;99.90
12481;DHT22;6305;48.398;11.762;2023-07-02T10:16:49;23.30;99.90
12481;DHT22;6305;48.398;11.762;2023-07-02T10:19:18;23.70;99.90
12481;DHT22;6305;48.398;11.762;2023-07-02T10:21:47;23.50;99.90
12481;DHT22;6305;48.398;11.762;2023-07-02T10:24:16;23.60;99.90
12481;DHT22;6305;48.398;11.762;2023-07-02T10:26:55;23.80;99.60
12481;DHT22;6305;48.398;11.762;2023-07-02T10:29:23;23.80;99.30
12481;DHT22;6305;48.398;11.762;2023-07-02T10:31:50;24.00;99.90
12481;DHT22;6305;48.398;11.762;2023-07-02T10:34:30;25.00;98.00
12481;DHT22;6305;48.398;11.762;2023-07-02T10:36:57;26.10;93.30
12481;DHT22;6305;48.398;11.762;2023-07-02T10:39:24;27.40;87.20
12481;DHT22;6305;48.398;11.762;2023-07-02T10:41:52;28.40;74.40
12481;DHT22;6305;48.398;11.762;2023-07-02T10:44:19;28.90;66.60
12481;DHT22;6305;48.398;11.762;2023-07-02T10:46:46;28.90;61.70
12481;DHT22;6305;48.398;11.762;2023-07-02T10:49:14;27.90;63.10
12481;DHT22;6305;48.398;11.762;2023-07-02T10:51:42;27.80;66.10
12481;DHT22;6305;48.398;11.762;2023-07-02T10:54:09;28.20;63.90
12481;DHT22;6305;48.398;11.762;2023-07-02T10:56:37;28.70;62.00
12481;DHT22;6305;48.398;11.762;2023-07-02T10:59:04;29.50;58.20
12481;DHT22;6305;48.398;11.762;2023-07-02T11:01:31;29.20;56.90
12481;DHT22;6305;48.398;11.762;2023-07-02T11:04:00;28.90;57.90
12481;DHT22;6305;48.398;11.762;2023-07-02T11:06:27;28.20;59.10
12481;DHT22;6305;48.398;11.762;2023-07-02T11:08:56;27.40;60.10
12481;DHT22;6305;48.398;11.762;2023-07-02T11:11:24;27.00;62.20
12481;DHT22;6305;48.398;11.762;2023-07-02T11:13:51;26.50;63.30
12481;DHT22;6305;48.398;11.762;2023-07-02T11:16:20;26.00;65.40
12481;DHT22;6305;48.398;11.762;2023-07-02T11:18:50;25.30;70.10
12481;DHT22;6305;48.398;11.762;2023-07-02T11:21:17;25.30;72.30
12481;DHT22;6305;48.398;11.762;2023-07-02T11:23:44;25.40;73.50
12481;DHT22;6305;48.398;11.762;2023-07-02T11:26:13;25.30;73.40
12481;DHT22;6305;48.398;11.762;2023-07-02T11:28:49;25.80;74.60
12481;DHT22;6305;48.398;11.762;2023-07-02T11:31:26;27.00;69.50
12481;DHT22;6305;48.398;11.762;2023-07-02T11:33:54;26.90;66.10
12481;DHT22;6305;48.398;11.762;2023-07-02T11:36:22;26.70;66.40
12481;DHT22;6305;48.398;11.762;2023-07-02T11:38:50;26.20;67.90
12481;DHT22;6305;48.398;11.762;2023-07-02T11:41:19;25.90;70.70
12481;DHT22;6305;48.398;11.762;2023-07-02T11:43:46;25.40;72.40
12481;DHT22;6305;48.398;11.762;2023-07-02T11:46:13;25.00;75.70
12481;DHT22;6305;48.398;11.762;2023-07-02T11:48:40;25.70;81.10
12481;DHT22;6305;48.398;11.762;2023-07-02T11:51:08;27.30;73.60
12481;DHT22;6305;48.398;11.762;2023-07-02T11:53:35;28.60;62.80
12481;DHT22;6305;48.398;11.762;2023-07-02T11:56:02;29.20;58.40
12481;DHT22;6305;48.398;11.762;2023-07-02T11:58:30;29.60;57.60
12481;DHT22;6305;48.398;11.762;2023-07-02T12:00:57;30.50;55.50
12481;DHT22;6305;48.398;11.762;2023-07-02T12:03:24;30.90;53.50
12481;DHT22;6305;48.398;11.762;2023-07-02T12:05:51;30.90;51.20
12481;DHT22;6305;48.398;11.762;2023-07-02T12:08:18;30.80;51.70
12481;DHT22;6305;48.398;11.762;2023-07-02T12:10:45;31.10;51.60
12481;DHT22;6305;48.398;11.762;2023-07-02T12:13:12;31.70;49.80
12481;DHT22;6305;48.398;11.762;2023-07-02T12:15:40;31.80;47.90
12481;DHT22;6305;48.398;11.762;2023-07-02T12:18:08;31.90;47.50
12481;DHT22;6305;48.398;11.762;2023-07-02T12:20:36;32.00;47.00
12481;DHT22;6305;48.398;11.762;2023-07-02T12:23:03;31.60;46.40
12481;DHT22;6305;48.398;11.762;2023-07-02T12:25:31;31.40;46.60
12481;DHT22;6305;48.398;11.762;2023-07-02T12:27:58;31.20;47.80
12481;DHT22;6305;48.398;11.762;2023-07-02T12:30:25;32.00;47.10
12481;DHT22;6305;48.398;11.762;2023-07-02T12:32:53;32.50;44.40
12481;DHT22;6305;48.398;11.762;2023-07-02T12:35:21;32.70;43.70
12481;DHT22;6305;48.398;11.762;2023-07-02T12:37:49;33.10;43.10
12481;DHT22;6305;48.398;11.762;2023-07-02T12:40:17;32.80;41.80
12481;DHT22;6305;48.398;11.762;2023-07-02T12:42:45;32.30;43.40
12481;DHT22;6305;48.398;11.762;2023-07-02T12:45:13;32.20;43.50
12481;DHT22;6305;48.398;11.762;2023-07-02T12:47:41;32.70;44.40
12481;DHT22;6305;48.398;11.762;2023-07-02T12:50:10;32.80;42.50
12481;DHT22;6305;48.398;11.762;2023-07-02T12:52:38;32.90;41.00
12481;DHT22;6305;48.398;11.762;2023-07-02T12:55:05;32.50;41.60
12481;DHT22;6305;48.398;11.762;2023-07-02T12:57:33;32.70;42.40
12481;DHT22;6305;48.398;11.762;2023-07-02T12:59:59;33.00;41.60
12481;DHT22;6305;48.398;11.762;2023-07-02T13:02:26;33.00;41.30
12481;DHT22;6305;48.398;11.762;2023-07-02T13:04:53;33.00;40.90
12481;DHT22;6305;48.398;11.762;2023-07-02T13:07:22;33.30;40.70
12481;DHT22;6305;48.398;11.762;2023-07-02T13:09:49;32.90;39.90
12481;DHT22;6305;48.398;11.762;2023-07-02T13:12:16;32.40;40.70
12481;DHT22;6305;48.398;11.762;2023-07-02T13:14:43;32.10;42.50
12481;DHT22;6305;48.398;11.762;2023-07-02T13:17:11;32.30;41.50
12481;DHT22;6305;48.398;11.762;2023-07-02T13:19:37;32.30;41.10
12481;DHT22;6305;48.398;11.762;2023-07-02T13:22:05;32.30;40.20
12481;DHT22;6305;48.398;11.762;2023-07-02T13:24:34;32.20;40.80
12481;DHT22;6305;48.398;11.762;2023-07-02T13:27:02;31.70;40.60
12481;DHT22;6305;48.398;11.762;2023-07-02T13:29:30;31.40;42.60
12481;DHT22;6305;48.398;11.762;2023-07-02T13:31:57;31.30;42.80
12481;DHT22;6305;48.398;11.762;2023-07-02T13:34:25;31.00;43.20
12481;DHT22;6305;48.398;11.762;2023-07-02T13:36:52;31.10;43.10
12481;DHT22;6305;48.398;11.762;2023-07-02T13:39:19;30.50;43.60
12481;DHT22;6305;48.398;11.762;2023-07-02T13:41:47;29.80;45.20
12481;DHT22;6305;48.398;11.762;2023-07-02T13:44:14;30.00;46.80
12481;DHT22;6305;48.398;11.762;2023-07-02T13:46:42;30.50;45.90
12481;DHT22;6305;48.398;11.762;2023-07-02T13:49:09;31.20;44.70
12481;DHT22;6305;48.398;11.762;2023-07-02T13:51:36;31.70;43.30
12481;DHT22;6305;48.398;11.762;2023-07-02T13:54:03;31.10;43.80
12481;DHT22;6305;48.398;11.762;2023-07-02T13:56:30;30.60;44.00
12481;DHT22;6305;48.398;11.762;2023-07-02T13:59:03;29.30;45.90
12481;DHT22;6305;48.398;11.762;2023-07-02T14:01:31;28.20;48.00
12481;DHT22;6305;48.398;11.762;2023-07-02T14:03:58;27.80;50.00
12481;DHT22;6305;48.398;11.762;2023-07-02T14:06:25;28.70;50.00
12481;DHT22;6305;48.398;11.762;2023-07-02T14:08:52;29.40;47.80
12481;DHT22;6305;48.398;11.762;2023-07-02T14:11:21;29.00;47.80
12481;DHT22;6305;48.398;11.762;2023-07-02T14:13:48;28.30;49.10
12481;DHT22;6305;48.398;11.762;2023-07-02T14:16:16;27.80;50.00
12481;DHT22;6305;48.398;11.762;2023-07-02T14:18:43;27.20;50.60
12481;DHT22;6305;48.398;11.762;2023-07-02T14:21:10;26.60;51.60
12481;DHT22;6305;48.398;11.762;2023-07-02T14:23:38;26.20;53.20
12481;DHT22;6305;48.398;11.762;2023-07-02T14:26:05;26.30;54.90
12481;DHT22;6305;48.398;11.762;2023-07-02T14:28:33;26.70;53.90
12481;DHT22;6305;48.398;11.762;2023-07-02T14:31:02;28.40;53.10
12481;DHT22;6305;48.398;11.762;2023-07-02T14:33:32;30.00;48.70
12481;DHT22;6305;48.398;11.762;2023-07-02T14:36:00;30.90;46.20
12481;DHT22;6305;48.398;11.762;2023-07-02T14:38:28;31.50;43.80
12481;DHT22;6305;48.398;11.762;2023-07-02T14:40:56;31.70;43.60
12481;DHT22;6305;48.398;11.762;2023-07-02T14:43:26;31.90;43.00
12481;DHT22;6305;48.398;11.762;2023-07-02T14:45:55;32.10;41.60
12481;DHT22;6305;48.398;11.762;2023-07-02T14:48:22;31.60;41.10
12481;DHT22;6305;48.398;11.762;2023-07-02T14:50:52;30.20;43.40
12481;DHT22;6305;48.398;11.762;2023-07-02T14:53:20;29.90;45.80
12481;DHT22;6305;48.398;11.762;2023-07-02T14:55:47;30.00;45.10
12481;DHT22;6305;48.398;11.762;2023-07-02T14:58:16;29.80;44.70
12481;DHT22;6305;48.398;11.762;2023-07-02T15:00:44;29.60;45.80
12481;DHT22;6305;48.398;11.762;2023-07-02T15:03:12;29.80;45.90
12481;DHT22;6305;48.398;11.762;2023-07-02T15:05:39;30.00;46.20
12481;DHT22;6305;48.398;11.762;2023-07-02T15:08:09;30.10;45.20
12481;DHT22;6305;48.398;11.762;2023-07-02T15:10:38;29.50;45.50
12481;DHT22;6305;48.398;11.762;2023-07-02T15:13:05;28.70;46.70
12481;DHT22;6305;48.398;11.762;2023-07-02T15:15:32;28.10;48.60
12481;DHT22;6305;48.398;11.762;2023-07-02T15:17:59;28.60;49.00
12481;DHT22;6305;48.398;11.762;2023-07-02T15:20:26;29.20;48.30
12481;DHT22;6305;48.398;11.762;2023-07-02T15:22:53;29.70;46.10
12481;DHT22;6305;48.398;11.762;2023-07-02T15:25:22;29.60;44.90
12481;DHT22;6305;48.398;11.762;2023-07-02T15:27:49;28.60;45.70
12481;DHT22;6305;48.398;11.762;2023-07-02T15:30:16;27.80;47.70
12481;DHT22;6305;48.398;11.762;2023-07-02T15:32:43;27.90;48.20
12481;DHT22;6305;48.398;11.762;2023-07-02T15:35:10;28.40;48.50